Terminal Aerodrome Forecast
Issued by NWS Cheyenne, WY

Home | Current Version | Previous Version | Text Only | Print | Product List | Glossary On
Versions: 1 2 3 4 5 6 7 8 9 10 11 12 13 14 15 16 17 18 19 20 21 22 23 24 25 26 27 28 29 30 31 32
383
FTUS45 KCYS 291819 CCA
TAFCYS
TAF COR
KCYS 291819Z 2918/3018 19012KT P6SM SCT100
     FM291900 14012G18KT P6SM VCTS BKN100CB
      TEMPO 2920/2923 26022G30KT 4SM -TSRA SCT035 BKN050CB
     FM300200 27008KT P6SM SCT100=

USA.gov is the U.S. government's official web portal to all federal, state and local government web resources and services.